Time;durP1;ratioP1;P1;durP2;ratioP2;P2;SDS_P1;SDS_P2;PMS_P1;PMS_P2;Temp;Humidity;BMP_temperature;BMP_pressure;BME280_temperature;BME280_humidity;BME280_pressure;Samples;Min_cycle;Max_cycle;Signal;HPM_P1;HPM_P2
2021/07/22 00:01:38;;;;;;;7.75;4.90;;;;;;;17.80;66.60;100998.25;5032436;28;20052;-81
2021/07/22 00:04:13;;;;;;;8.70;5.13;;;;;;;17.77;66.75;100996.66;5019802;28;20052;-81
2021/07/22 00:06:40;;;;;;;7.18;4.90;;;;;;;17.76;66.42;101002.97;5012001;28;20058;-81
2021/07/22 00:09:07;;;;;;;12.50;5.15;;;;;;;17.78;66.51;101001.06;5012454;28;20053;-81
2021/07/22 00:11:34;;;;;;;8.75;5.60;;;;;;;17.72;67.20;100995.22;5011543;28;20053;-81
2021/07/22 00:14:01;;;;;;;7.63;5.15;;;;;;;17.67;67.19;100992.84;5013720;28;20507;-81
2021/07/22 00:16:30;;;;;;;9.85;5.90;;;;;;;17.63;67.68;100995.81;5012904;28;20057;-81
2021/07/22 00:18:57;;;;;;;9.80;5.85;;;;;;;17.57;68.52;100997.09;5019139;28;20050;-81
2021/07/22 00:21:24;;;;;;;9.45;5.55;;;;;;;17.54;68.65;100991.94;5011405;28;20065;-81
2021/07/22 00:23:54;;;;;;;7.55;5.45;;;;;;;17.51;68.99;100986.75;5025330;28;20049;-80
2021/07/22 00:26:24;;;;;;;9.68;5.45;;;;;;;17.47;69.27;100983.44;5007961;28;20046;-82
2021/07/22 00:28:51;;;;;;;10.82;5.55;;;;;;;17.44;69.34;100994.38;5021526;28;20046;-81
2021/07/22 00:31:19;;;;;;;8.00;5.55;;;;;;;17.45;69.42;100992.53;5002949;28;20050;-81
2021/07/22 00:33:49;;;;;;;7.45;5.32;;;;;;;17.44;69.72;100990.81;5014457;28;20053;-82
2021/07/22 00:36:17;;;;;;;7.90;5.70;;;;;;;17.36;70.05;100990.47;5023342;28;20076;-81
2021/07/22 00:38:45;;;;;;;10.20;5.53;;;;;;;17.35;70.16;100994.09;5021701;28;20057;-81
2021/07/22 00:41:12;;;;;;;9.75;5.32;;;;;;;17.28;70.63;100990.13;5010692;28;20046;-81
2021/07/22 00:43:40;;;;;;;7.90;5.72;;;;;;;17.23;71.00;100995.75;5018307;28;20045;-81
2021/07/22 00:46:09;;;;;;;8.50;5.28;;;;;;;17.22;70.91;100988.69;4997853;28;20046;-81
2021/07/22 00:48:37;;;;;;;9.80;6.28;;;;;;;17.21;71.13;100989.66;5027983;28;20116;-81
2021/07/22 00:51:05;;;;;;;9.40;5.90;;;;;;;17.18;71.09;100990.69;5018898;28;20054;-81
2021/07/22 00:53:36;;;;;;;10.32;5.85;;;;;;;17.15;71.87;100990.06;5025681;28;20084;-81
2021/07/22 00:56:05;;;;;;;6.95;5.32;;;;;;;17.12;71.96;100987.56;5002708;28;20064;-81
2021/07/22 00:58:38;;;;;;;9.52;6.30;;;;;;;17.07;72.22;100979.84;5020005;28;20127;-83
2021/07/22 01:01:06;;;;;;;11.27;5.50;;;;;;;17.04;72.43;100988.06;5023945;28;20081;-80
2021/07/22 01:03:38;;;;;;;9.70;5.75;;;;;;;17.00;72.53;100981.19;5029775;28;20493;-81
2021/07/22 01:06:07;;;;;;;8.73;5.82;;;;;;;16.97;72.72;100978.72;5035835;28;20060;-81
2021/07/22 01:08:35;;;;;;;9.85;6.15;;;;;;;16.94;73.20;100976.25;5052481;28;20054;-81
2021/07/22 01:11:03;;;;;;;7.75;5.95;;;;;;;16.93;73.59;100979.88;5039365;28;20094;-80
2021/07/22 01:13:35;;;;;;;7.90;5.28;;;;;;;16.96;73.68;100976.16;5048249;28;20054;-79
2021/07/22 01:16:03;;;;;;;11.40;6.28;;;;;;;17.00;73.33;100977.69;5036977;28;20077;-80
2021/07/22 01:18:30;;;;;;;9.07;6.32;;;;;;;16.98;73.37;100972.41;5026138;28;20077;-79
2021/07/22 01:20:59;;;;;;;8.25;5.57;;;;;;;17.01;73.33;100974.88;5038443;28;20121;-80
2021/07/22 01:23:25;;;;;;;8.55;5.75;;;;;;;16.98;73.30;100968.88;5033158;28;20109;-81
2021/07/22 01:25:54;;;;;;;8.23;6.10;;;;;;;16.95;73.25;100972.59;5023430;28;20830;-80
2021/07/22 01:28:22;;;;;;;9.75;6.55;;;;;;;16.92;73.67;100979.97;5027717;28;20116;-80
2021/07/22 01:30:49;;;;;;;8.30;6.20;;;;;;;16.87;74.06;100969.56;5020473;28;20408;-82
2021/07/22 01:33:17;;;;;;;11.25;6.05;;;;;;;16.80;74.06;100973.59;5022213;28;20065;-80
2021/07/22 01:35:45;;;;;;;8.52;6.05;;;;;;;16.76;74.49;100972.06;5027357;28;20073;-81
2021/07/22 01:38:12;;;;;;;9.00;6.13;;;;;;;16.67;74.82;100970.84;5026646;28;20045;-81
2021/07/22 01:40:40;;;;;;;8.65;6.28;;;;;;;16.66;74.82;100971.78;5020155;28;20109;-80
2021/07/22 01:43:08;;;;;;;10.02;5.95;;;;;;;16.66;74.87;100968.25;5022901;28;20045;-80
2021/07/22 01:45:35;;;;;;;9.05;6.35;;;;;;;16.60;75.17;100968.59;5021783;28;20060;-81
2021/07/22 01:48:02;;;;;;;9.25;5.75;;;;;;;16.57;75.70;100972.31;5023965;28;20421;-81
2021/07/22 01:50:31;;;;;;;13.55;6.40;;;;;;;16.58;75.56;100973.19;4999350;28;20053;-81
2021/07/22 01:53:02;;;;;;;9.13;6.38;;;;;;;16.55;75.79;100968.03;5021665;28;20088;-80
2021/07/22 01:55:31;;;;;;;12.15;6.40;;;;;;;16.52;75.82;100960.22;5021889;28;20065;-81
2021/07/22 01:58:03;;;;;;;10.20;6.35;;;;;;;16.48;75.89;100960.41;5027258;28;20143;-82
2021/07/22 02:00:34;;;;;;;8.98;6.20;;;;;;;16.44;75.87;100963.34;5015009;28;20133;-81
2021/07/22 02:03:01;;;;;;;12.38;6.45;;;;;;;16.38;76.12;100950.34;5029968;28;20104;-80
2021/07/22 02:05:32;;;;;;;10.65;6.55;;;;;;;16.37;76.24;100960.19;5033742;28;20046;-79
2021/07/22 02:07:59;;;;;;;11.15;6.20;;;;;;;16.38;76.33;100967.25;5017991;28;20113;-80
2021/07/22 02:10:25;;;;;;;9.23;6.18;;;;;;;16.35;76.43;100972.81;5022712;28;20121;-80
2021/07/22 02:12:52;;;;;;;10.50;6.43;;;;;;;16.34;76.80;100967.56;5024290;28;20136;-81
2021/07/22 02:15:24;;;;;;;8.40;5.75;;;;;;;16.33;76.67;100958.69;5011449;28;20073;-81
2021/07/22 02:17:50;;;;;;;10.20;6.28;;;;;;;16.37;76.45;100972.72;5025710;28;20062;-81
2021/07/22 02:20:23;;;;;;;9.48;6.72;;;;;;;16.39;76.17;100976.13;5025107;28;20109;-81
2021/07/22 02:22:53;;;;;;;8.82;5.95;;;;;;;16.36;76.17;100971.00;5005856;28;20046;-81
2021/07/22 02:25:19;;;;;;;11.52;7.10;;;;;;;16.30;76.43;100972.22;5027371;28;20049;-81
2021/07/22 02:27:46;;;;;;;12.20;6.80;;;;;;;16.24;76.76;100964.56;5026740;28;20089;-81
2021/07/22 02:30:18;;;;;;;10.40;6.75;;;;;;;16.20;77.12;100960.41;5034128;28;20118;-80
2021/07/22 02:32:45;;;;;;;8.43;6.25;;;;;;;16.18;77.19;100966.78;5035398;28;20062;-80
2021/07/22 02:35:13;;;;;;;8.32;5.93;;;;;;;16.16;76.89;100960.66;5031789;28;20046;-80
2021/07/22 02:37:45;;;;;;;10.63;6.40;;;;;;;16.16;77.20;100966.88;5022784;28;20050;-80
2021/07/22 02:40:13;;;;;;;10.80;6.72;;;;;;;16.17;76.92;100960.56;5025778;28;20049;-80
2021/07/22 02:42:42;;;;;;;10.02;6.43;;;;;;;16.14;77.21;100960.75;5026941;28;20540;-81
2021/07/22 02:45:10;;;;;;;11.10;6.55;;;;;;;16.11;77.26;100967.16;5022789;28;20145;-80
2021/07/22 02:47:39;;;;;;;12.50;6.78;;;;;;;16.11;77.53;100961.81;5028616;28;20073;-80
2021/07/22 02:50:07;;;;;;;11.13;6.65;;;;;;;16.10;77.26;100967.22;5034397;28;20117;-80
2021/07/22 02:52:37;;;;;;;10.85;6.50;;;;;;;16.05;77.56;100964.00;5035270;28;20054;-80
2021/07/22 02:55:04;;;;;;;11.55;6.63;;;;;;;15.97;77.75;100960.91;5037561;28;20040;-79
2021/07/22 02:57:33;;;;;;;9.68;6.75;;;;;;;15.92;78.28;100961.19;5030703;28;20117;-79
2021/07/22 03:00:00;;;;;;;10.07;6.97;;;;;;;15.87;78.78;100965.97;5038028;28;20037;-79
2021/07/22 03:02:28;;;;;;;9.27;6.47;;;;;;;15.82;78.72;100959.16;5026613;28;20049;-80
2021/07/22 03:04:55;;;;;;;9.25;6.07;;;;;;;15.82;78.74;100962.69;5050317;28;20080;-80
2021/07/22 03:07:24;;;;;;;13.05;7.13;;;;;;;15.81;78.76;100965.47;5056236;28;20101;-80
2021/07/22 03:09:51;;;;;;;9.68;7.30;;;;;;;15.81;78.90;100968.13;5044544;28;20030;-79
2021/07/22 03:12:19;;;;;;;11.85;6.53;;;;;;;15.78;78.94;100962.00;5028213;28;20073;-79
2021/07/22 03:14:48;;;;;;;12.82;6.97;;;;;;;15.77;78.90;100970.97;5035655;28;20057;-80
2021/07/22 03:17:15;;;;;;;11.68;7.13;;;;;;;15.77;78.82;100964.78;5034495;28;20074;-79
2021/07/22 03:19:44;;;;;;;12.73;6.72;;;;;;;15.75;78.99;100972.88;5025009;28;20132;-81
2021/07/22 03:22:12;;;;;;;11.68;7.00;;;;;;;15.76;78.73;100969.25;5020263;28;20574;-80
2021/07/22 03:24:39;;;;;;;11.65;6.60;;;;;;;15.71;79.11;100968.69;5020164;28;20050;-81
2021/07/22 03:27:11;;;;;;;12.75;7.60;;;;;;;15.72;78.84;100970.41;5020598;28;20089;-81
2021/07/22 03:29:38;;;;;;;;;;;;;;;15.71;79.09;100966.03;5019660;28;20050;-80
2021/07/22 03:32:07;;;;;;;11.82;7.35;;;;;;;15.71;79.00;100965.16;5020444;28;20025;-81
2021/07/22 03:34:35;;;;;;;9.20;6.73;;;;;;;15.69;78.94;100967.91;5020630;28;20094;-81
2021/07/22 03:37:02;;;;;;;9.45;6.93;;;;;;;15.64;79.38;100961.13;5003457;28;20472;-81
2021/07/22 03:39:29;;;;;;;12.63;6.90;;;;;;;15.59;79.37;100964.06;5019261;28;20725;-81
2021/07/22 03:41:55;;;;;;;11.50;7.15;;;;;;;15.61;79.51;100961.28;5019177;28;20157;-80
2021/07/22 03:44:22;;;;;;;10.38;6.63;;;;;;;15.55;79.58;100953.63;5019682;28;20037;-80
2021/07/22 03:46:48;;;;;;;12.90;7.57;;;;;;;15.54;79.93;100950.09;5020261;28;20099;-81
2021/07/22 03:49:15;;;;;;;10.68;6.55;;;;;;;15.54;80.05;100957.25;5019794;28;20049;-80
2021/07/22 03:51:42;;;;;;;12.68;7.68;;;;;;;15.53;79.87;100953.72;5021438;28;20060;-80
2021/07/22 03:54:14;;;;;;;11.00;6.75;;;;;;;15.53;79.85;100955.53;5030067;28;20116;-80
2021/07/22 03:56:41;;;;;;;8.70;6.70;;;;;;;15.51;79.67;100952.94;5032753;28;20041;-80
2021/07/22 03:59:08;;;;;;;12.85;7.90;;;;;;;15.49;79.83;100960.19;5034720;28;20092;-80
2021/07/22 04:01:34;;;;;;;11.27;7.28;;;;;;;15.50;79.70;100963.72;5015617;28;20056;-80
2021/07/22 04:04:01;;;;;;;11.57;6.53;;;;;;;15.44;80.00;100968.44;5014185;28;20053;-80
2021/07/22 04:06:33;;;;;;;10.15;6.97;;;;;;;15.43;80.16;100964.06;5027824;28;20053;-81
2021/07/22 04:09:00;;;;;;;10.60;7.20;;;;;;;15.46;80.07;100971.03;5023163;28;20084;-79
2021/07/22 04:11:40;;;;;;;14.35;7.70;;;;;;;15.49;80.29;100976.19;5033746;28;20105;-80
2021/07/22 04:14:07;;;;;;;11.23;7.20;;;;;;;15.53;79.73;100972.41;5025184;28;20050;-79
2021/07/22 04:16:35;;;;;;;13.00;7.25;;;;;;;15.55;79.52;100975.00;5022083;28;20100;-79
2021/07/22 04:19:03;;;;;;;12.57;7.20;;;;;;;15.49;79.89;100970.84;5021808;28;20050;-79
2021/07/22 04:21:30;;;;;;;11.30;7.35;;;;;;;15.47;79.76;100967.41;5021907;28;20084;-79
2021/07/22 04:23:57;;;;;;;11.95;7.13;;;;;;;15.50;79.77;100975.25;5023422;28;20524;-79
2021/07/22 04:26:24;;;;;;;10.32;7.35;;;;;;;15.51;79.83;100976.09;5032802;28;20052;-80
2021/07/22 04:28:52;;;;;;;8.80;6.68;;;;;;;15.53;79.68;100975.06;5039096;28;20053;-80
2021/07/22 04:31:20;;;;;;;10.03;6.60;;;;;;;15.55;80.11;100980.31;5038226;28;20140;-80
2021/07/22 04:33:50;;;;;;;10.38;6.88;;;;;;;15.57;80.06;100976.66;5038277;28;20049;-79
2021/07/22 04:36:17;;;;;;;11.23;7.10;;;;;;;15.68;80.17;100981.34;5040348;28;20052;-80
2021/07/22 04:38:44;;;;;;;9.88;7.10;;;;;;;15.71;79.55;100990.06;5032920;28;20061;-80
2021/07/22 04:41:11;;;;;;;10.35;7.30;;;;;;;15.75;80.04;100988.91;5017896;28;20058;-79
2021/07/22 04:43:38;;;;;;;10.55;6.82;;;;;;;15.83;79.90;100992.94;5026259;28;20053;-80
2021/07/22 04:46:05;;;;;;;10.20;6.75;;;;;;;15.85;79.65;100988.38;5018052;28;20088;-80
2021/07/22 04:48:33;;;;;;;8.70;6.40;;;;;;;15.94;79.29;100990.47;5023482;28;20042;-80
2021/07/22 04:51:05;;;;;;;12.98;7.22;;;;;;;16.00;79.17;100991.00;5029067;28;20056;-79
2021/07/22 04:53:37;;;;;;;10.00;7.00;;;;;;;16.05;78.66;100988.03;5033874;28;20057;-80
2021/07/22 04:56:04;;;;;;;9.40;6.65;;;;;;;16.08;78.68;100988.69;5033733;28;20041;-80
2021/07/22 04:58:30;;;;;;;10.75;6.63;;;;;;;16.11;78.31;100982.31;5016675;28;20046;-80
2021/07/22 05:00:58;;;;;;;10.35;7.57;;;;;;;16.13;78.41;100986.63;5028260;28;20034;-80
2021/07/22 05:03:28;;;;;;;10.02;6.97;;;;;;;16.19;78.31;100990.75;5018816;28;20038;-80
2021/07/22 05:05:55;;;;;;;12.05;7.38;;;;;;;16.24;78.21;100996.66;5035676;28;20072;-80
2021/07/22 05:08:22;;;;;;;13.75;7.00;;;;;;;16.28;77.33;100998.19;5035567;28;20033;-80
2021/07/22 05:10:51;;;;;;;10.45;7.28;;;;;;;16.33;77.44;100996.09;5033707;28;20030;-80
2021/07/22 05:13:19;;;;;;;12.50;7.00;;;;;;;16.42;77.52;100995.53;5034395;28;20085;-81
2021/07/22 05:15:46;;;;;;;11.63;7.47;;;;;;;16.49;76.88;100988.00;5036625;28;20065;-80
2021/07/22 05:18:15;;;;;;;13.68;7.22;;;;;;;16.58;76.48;100994.56;5036429;28;20121;-80
2021/07/22 05:20:42;;;;;;;11.82;7.75;;;;;;;16.64;76.26;100988.88;5036559;28;20034;-80
2021/07/22 05:23:09;;;;;;;13.00;6.93;;;;;;;16.75;76.39;100992.59;5035645;28;20061;-80
2021/07/22 05:25:37;;;;;;;10.30;6.75;;;;;;;16.83;75.54;100995.66;5033896;28;20141;-81
2021/07/22 05:28:03;;;;;;;10.10;7.03;;;;;;;16.93;75.83;100998.59;5021270;28;20089;-81
2021/07/22 05:30:30;;;;;;;14.77;7.45;;;;;;;17.04;75.31;100998.75;5020873;28;20046;-80
2021/07/22 05:32:57;;;;;;;12.48;7.47;;;;;;;17.10;74.41;101000.19;5019493;28;20058;-81
2021/07/22 05:35:24;;;;;;;10.45;7.05;;;;;;;17.18;74.39;101006.75;5019727;28;20149;-81
2021/07/22 05:37:53;;;;;;;12.27;6.88;;;;;;;17.27;74.29;101001.78;5006853;28;20761;-81
2021/07/22 05:40:20;;;;;;;11.82;6.93;;;;;;;17.41;73.83;101007.94;5034469;28;20041;-80
2021/07/22 05:42:49;;;;;;;10.73;6.43;;;;;;;17.52;73.65;101001.88;5033781;28;20076;-81
2021/07/22 05:45:15;;;;;;;13.30;7.38;;;;;;;17.56;72.90;100998.03;5036187;28;20033;-81
2021/07/22 05:47:44;;;;;;;13.95;7.35;;;;;;;17.52;73.10;101008.09;5020573;28;20038;-81
2021/07/22 05:50:10;;;;;;;12.48;6.55;;;;;;;17.57;73.90;100999.75;5024439;28;20125;-81
2021/07/22 05:52:37;;;;;;;12.77;7.03;;;;;;;17.66;73.79;101001.84;5028130;28;20064;-81
2021/07/22 05:55:08;;;;;;;10.95;6.82;;;;;;;17.72;72.91;101006.81;5032525;28;20109;-79
2021/07/22 05:57:36;;;;;;;11.82;6.97;;;;;;;17.79;72.20;101001.88;5031358;28;20169;-79
2021/07/22 06:00:09;;;;;;;10.95;6.95;;;;;;;17.83;72.56;100998.91;5028788;28;20053;-79
2021/07/22 06:02:36;;;;;;;9.52;6.70;;;;;;;17.90;72.09;100999.34;5021386;28;20062;-81
2021/07/22 06:05:05;;;;;;;10.60;6.60;;;;;;;17.98;72.54;101004.19;5000988;28;20096;-80
2021/07/22 06:07:33;;;;;;;10.00;6.53;;;;;;;18.08;71.73;100998.09;5021718;28;20050;-80
2021/07/22 06:10:00;;;;;;;11.48;6.57;;;;;;;18.23;71.39;100998.88;5021512;28;20084;-81
2021/07/22 06:12:29;;;;;;;11.93;6.82;;;;;;;18.41;70.91;101002.09;5011875;28;20045;-81
2021/07/22 06:14:57;;;;;;;12.25;6.90;;;;;;;18.52;69.08;100995.00;5021564;28;20121;-81
2021/07/22 06:17:24;;;;;;;10.23;6.95;;;;;;;18.65;68.69;100997.69;5020910;28;20062;-81
2021/07/22 06:19:52;;;;;;;12.98;6.63;;;;;;;18.80;68.05;101003.81;5019438;28;20490;-81
2021/07/22 06:22:19;;;;;;;15.55;6.93;;;;;;;19.08;66.57;100999.97;4998601;28;20069;-81
2021/07/22 06:24:48;;;;;;;11.35;6.68;;;;;;;19.43;65.75;100992.00;5020042;28;20054;-81
2021/07/22 06:27:14;;;;;;;11.70;7.07;;;;;;;19.79;63.78;101000.03;5024407;28;20088;-81
2021/07/22 06:29:41;;;;;;;10.27;6.28;;;;;;;20.17;63.48;100991.72;5030552;28;20088;-82
2021/07/22 06:32:08;;;;;;;13.82;6.85;;;;;;;20.52;60.79;100990.81;5027250;28;20118;-81
2021/07/22 06:34:34;;;;;;;14.20;6.47;;;;;;;20.76;59.77;101001.47;5005688;28;20064;-81
2021/07/22 06:37:01;;;;;;;13.40;6.70;;;;;;;20.77;59.33;100995.13;5017973;28;20580;-81
2021/07/22 06:39:35;;;;;;;14.57;6.88;;;;;;;20.97;59.12;100991.66;5020043;28;20054;-81
2021/07/22 06:42:03;;;;;;;10.75;6.70;;;;;;;21.21;57.95;100999.63;5023356;28;20045;-81
2021/07/22 06:44:30;;;;;;;10.35;6.20;;;;;;;21.40;57.44;100996.28;5022335;28;20042;-81
2021/07/22 06:46:57;;;;;;;9.48;6.25;;;;;;;21.58;56.64;100997.44;5019035;28;20056;-81
2021/07/22 06:49:24;;;;;;;10.75;6.15;;;;;;;21.81;55.88;100995.50;5022167;28;20113;-81
2021/07/22 06:52:05;;;;;;;8.75;5.78;;;;;;;22.01;54.87;101000.09;5019594;28;20054;-81
2021/07/22 06:54:31;;;;;;;8.27;5.93;;;;;;;22.11;54.26;101000.16;5016873;28;20595;-81
2021/07/22 06:56:59;;;;;;;7.30;5.68;;;;;;;22.20;54.69;100999.38;5016555;28;20081;-81
2021/07/22 06:59:27;;;;;;;12.43;6.70;;;;;;;22.33;54.26;101000.91;5036250;28;20132;-81
2021/07/22 07:01:55;;;;;;;8.85;5.72;;;;;;;22.49;53.05;101005.81;5040019;28;20049;-81
2021/07/22 07:04:22;;;;;;;7.90;5.82;;;;;;;22.54;52.77;101002.69;5045529;28;20109;-81
2021/07/22 07:06:54;;;;;;;9.38;6.35;;;;;;;22.57;53.19;100999.72;5008364;28;20142;-80
2021/07/22 07:09:21;;;;;;;9.98;6.30;;;;;;;22.65;52.03;101003.50;5028116;28;20084;-81
2021/07/22 07:11:51;;;;;;;10.05;6.30;;;;;;;22.61;52.53;100999.34;5012281;28;20089;-81
2021/07/22 07:14:17;;;;;;;9.45;6.05;;;;;;;22.70;52.28;100993.13;5017800;28;20049;-81
2021/07/22 07:16:46;;;;;;;8.52;5.82;;;;;;;22.86;52.84;101002.59;5001622;28;20070;-81
2021/07/22 07:19:14;;;;;;;9.07;6.10;;;;;;;23.11;52.66;100996.72;5021935;28;20106;-80
2021/07/22 07:21:41;;;;;;;9.63;6.30;;;;;;;23.20;51.37;100992.31;5023684;28;20056;-82
2021/07/22 07:24:08;;;;;;;10.55;6.63;;;;;;;23.23;50.98;101000.16;5025890;28;20486;-82
2021/07/22 07:26:41;;;;;;;10.25;6.22;;;;;;;23.10;51.45;100992.31;5026347;28;20073;-82
2021/07/22 07:29:08;;;;;;;8.50;5.90;;;;;;;23.11;52.22;100999.44;5014393;28;20122;-82
2021/07/22 07:31:38;;;;;;;11.73;6.45;;;;;;;23.27;50.71;100986.25;5009832;28;20057;-82
2021/07/22 07:34:07;;;;;;;9.20;5.97;;;;;;;23.40;49.90;100996.78;5022565;28;20046;-81
2021/07/22 07:36:41;;;;;;;7.18;6.05;;;;;;;23.36;51.31;100996.19;5012494;28;20088;-81
2021/07/22 07:39:07;;;;;;;7.93;6.05;;;;;;;23.40;50.11;100986.81;5022831;28;20141;-82
2021/07/22 07:41:37;;;;;;;9.38;6.32;;;;;;;23.51;50.87;100987.69;5020742;28;20096;-81
2021/07/22 07:44:04;;;;;;;7.95;5.70;;;;;;;23.54;50.43;100993.69;5031369;28;20068;-81
2021/07/22 07:46:33;;;;;;;8.57;6.53;;;;;;;23.66;50.23;100986.31;5022783;28;20076;-82
2021/07/22 07:49:03;;;;;;;8.55;6.10;;;;;;;23.93;50.08;100988.28;5020509;28;20038;-81
2021/07/22 07:51:30;;;;;;;11.35;6.15;;;;;;;24.08;49.24;100986.88;5007316;28;20046;-81
2021/07/22 07:53:58;;;;;;;8.20;6.00;;;;;;;24.34;48.50;100984.41;5027917;28;20060;-81
2021/07/22 07:56:27;;;;;;;10.43;5.85;;;;;;;24.54;48.45;100980.66;5022105;28;20053;-81
2021/07/22 07:59:01;;;;;;;8.05;6.30;;;;;;;24.51;45.53;100985.50;5022306;28;20061;-81
2021/07/22 08:01:44;;;;;;;9.50;6.47;;;;;;;24.37;45.80;100982.28;5019720;28;20073;-82
2021/07/22 08:04:14;;;;;;;8.00;6.68;;;;;;;24.36;45.73;100974.31;5014568;28;20066;-81
2021/07/22 08:06:41;;;;;;;9.55;6.03;;;;;;;24.42;47.26;100982.66;5002637;28;20474;-81
2021/07/22 08:09:21;;;;;;;8.18;6.07;;;;;;;24.63;45.95;100970.78;5016603;28;20113;-81
2021/07/22 08:11:47;;;;;;;11.48;6.25;;;;;;;24.81;46.40;100972.56;5018720;28;20133;-80
2021/07/22 08:14:14;;;;;;;8.27;6.10;;;;;;;24.87;44.00;100978.38;5019848;28;20045;-81
2021/07/22 08:16:43;;;;;;;9.60;7.05;;;;;;;24.77;44.54;100973.84;5016736;28;20057;-81
2021/07/22 08:19:09;;;;;;;8.80;6.82;;;;;;;24.72;44.04;100970.72;5028934;28;20049;-82
2021/07/22 08:21:37;;;;;;;11.32;6.57;;;;;;;24.60;44.39;100966.50;5011605;28;20059;-81
2021/07/22 08:24:04;;;;;;;8.32;6.88;;;;;;;24.34;46.17;100968.19;5024723;28;20046;-82
2021/07/22 08:26:32;;;;;;;8.23;6.20;;;;;;;24.45;46.42;100965.28;5021832;28;20042;-81
2021/07/22 08:28:58;;;;;;;9.30;6.03;;;;;;;24.64;45.48;100961.66;5003993;28;20049;-81
2021/07/22 08:31:26;;;;;;;9.75;6.07;;;;;;;24.58;45.20;100960.38;5018796;28;20060;-81
2021/07/22 08:33:54;;;;;;;11.23;6.20;;;;;;;24.47;44.30;100955.16;4999618;28;20108;-82
2021/07/22 08:36:21;;;;;;;7.22;6.45;;;;;;;24.53;45.17;100954.59;5020399;28;20061;-82
2021/07/22 08:38:50;;;;;;;9.05;6.00;;;;;;;24.63;44.90;100958.09;5015190;28;20079;-81
2021/07/22 08:41:17;;;;;;;7.85;5.93;;;;;;;24.66;44.30;100963.22;5017710;28;20083;-83
2021/07/22 08:43:46;;;;;;;9.00;6.25;;;;;;;24.68;45.13;100958.50;5018061;28;20042;-81
2021/07/22 08:46:13;;;;;;;6.97;5.93;;;;;;;24.72;45.77;100950.91;5017900;28;20046;-82
2021/07/22 08:48:43;;;;;;;7.90;6.18;;;;;;;24.70;45.35;100952.94;5017417;28;20145;-81
2021/07/22 08:51:11;;;;;;;11.13;6.82;;;;;;;24.76;44.88;100947.75;5017984;28;20049;-81
2021/07/22 08:53:37;;;;;;;7.63;5.57;;;;;;;24.85;44.31;100945.19;5020945;28;20102;-81
2021/07/22 08:56:08;;;;;;;8.27;5.40;;;;;;;24.98;44.72;100953.81;5024655;28;20053;-81
2021/07/22 08:58:40;;;;;;;8.82;6.38;;;;;;;25.06;44.01;100948.50;5036176;28;20030;-80
2021/07/22 09:01:11;;;;;;;12.80;5.93;;;;;;;24.86;43.71;100950.44;5032782;28;20109;-81
2021/07/22 09:03:38;;;;;;;9.00;5.82;;;;;;;24.91;44.50;100940.00;5011053;28;20056;-80
2021/07/22 09:06:23;;;;;;;11.15;6.15;;;;;;;24.86;43.87;100944.16;5033425;28;20045;-80
2021/07/22 09:08:50;;;;;;;8.10;6.13;;;;;;;24.78;44.35;100937.63;5036980;28;20043;-80
2021/07/22 09:11:19;;;;;;;8.57;5.72;;;;;;;24.71;43.16;100938.41;5022257;28;20053;-80
2021/07/22 09:13:49;;;;;;;7.93;5.82;;;;;;;24.77;42.60;100930.50;5030567;28;20046;-81
2021/07/22 09:16:34;;;;;;;10.15;6.30;;;;;;;24.92;41.11;100938.13;5025658;28;20045;-81
2021/07/22 09:19:03;;;;;;;7.35;6.20;;;;;;;24.92;41.20;100948.97;5020698;28;20458;-81
2021/07/22 09:21:30;;;;;;;8.05;5.63;;;;;;;24.80;42.57;100941.06;5019200;28;20053;-81
2021/07/22 09:24:11;;;;;;;7.72;5.57;;;;;;;24.78;43.72;100943.06;5017177;28;20088;-81
2021/07/22 09:26:40;;;;;;;8.65;5.40;;;;;;;24.59;41.83;100935.00;5020283;28;20069;-82
2021/07/22 09:29:09;;;;;;;8.18;6.18;;;;;;;24.53;40.54;100937.47;5019063;28;20054;-81
2021/07/22 09:31:38;;;;;;;8.85;6.00;;;;;;;24.42;41.95;100935.78;5022875;28;20058;-81
2021/07/22 09:34:25;;;;;;;8.65;6.53;;;;;;;24.42;40.76;100924.97;5043355;28;20126;-81
2021/07/22 09:36:52;;;;;;;7.95;6.63;;;;;;;24.33;40.07;100924.00;5030637;28;20060;-80
2021/07/22 09:39:24;;;;;;;7.90;5.90;;;;;;;24.37;40.95;100927.28;5034824;28;20106;-81
2021/07/22 09:42:08;;;;;;;9.23;7.00;;;;;;;24.42;39.79;100927.66;5017552;28;20073;-81
2021/07/22 09:44:38;;;;;;;8.63;6.65;;;;;;;24.43;39.09;100930.25;5034841;28;20049;-81
2021/07/22 09:47:08;;;;;;;11.02;7.82;;;;;;;24.45;38.01;100933.66;5033792;28;20064;-82
2021/07/22 09:49:41;;;;;;;10.60;7.35;;;;;;;24.31;39.54;100933.28;5022480;28;20068;-81
2021/07/22 09:52:17;;;;;;;9.45;6.93;;;;;;;24.25;40.11;100925.72;5032445;28;20533;-81
2021/07/22 09:54:44;;;;;;;10.88;6.78;;;;;;;24.36;40.13;100922.88;5033500;28;20057;-81
2021/07/22 09:57:14;;;;;;;9.25;6.95;;;;;;;24.50;40.67;100926.94;5035736;28;20110;-81
2021/07/22 09:59:43;;;;;;;10.05;7.00;;;;;;;24.53;40.12;100916.69;5032035;28;20069;-80
2021/07/22 10:02:22;;;;;;;8.45;6.75;;;;;;;24.58;40.27;100917.06;5021620;28;20056;-80
2021/07/22 10:04:52;;;;;;;9.25;6.63;;;;;;;24.57;40.00;100918.06;5025716;28;20081;-81
2021/07/22 10:07:23;;;;;;;9.38;6.93;;;;;;;24.66;39.27;100922.59;5028024;28;20061;-80
2021/07/22 10:09:52;;;;;;;9.80;6.40;;;;;;;24.72;39.36;100916.56;5029511;28;20053;-82
2021/07/22 10:12:20;;;;;;;9.40;6.90;;;;;;;24.88;39.14;100918.59;5024537;28;20077;-83
2021/07/22 10:14:53;;;;;;;8.85;7.22;;;;;;;24.85;38.48;100920.78;5006790;28;20666;-82
2021/07/22 10:17:30;;;;;;;10.20;7.30;;;;;;;24.81;37.87;100912.09;5021770;28;20062;-82
2021/07/22 10:19:59;;;;;;;9.75;6.47;;;;;;;24.78;38.43;100913.25;5021205;28;20056;-82
2021/07/22 10:22:26;;;;;;;9.05;7.20;;;;;;;24.87;38.77;100907.97;5015963;28;20126;-83
2021/07/22 10:24:54;;;;;;;8.95;6.75;;;;;;;24.94;38.47;100911.78;5010726;28;20052;-83
2021/07/22 10:27:22;;;;;;;9.52;6.60;;;;;;;25.00;39.22;100903.06;5004856;28;20054;-82
2021/07/22 10:29:52;;;;;;;9.23;6.55;;;;;;;25.06;38.75;100902.41;5005393;28;20050;-80
2021/07/22 10:32:26;;;;;;;8.93;6.47;;;;;;;25.11;38.68;100900.13;5030388;28;20118;-80
2021/07/22 10:34:59;;;;;;;8.07;6.30;;;;;;;25.19;38.49;100900.19;5020653;28;20474;-83
2021/07/22 10:37:27;;;;;;;9.10;6.47;;;;;;;25.21;38.28;100898.19;5027032;28;20057;-82
2021/07/22 10:39:58;;;;;;;9.05;6.70;;;;;;;25.23;37.91;100888.03;5032943;28;20053;-82
2021/07/22 10:42:37;;;;;;;;;;;;;;;25.15;37.30;100901.53;5033081;28;20065;-82
2021/07/22 10:45:20;;;;;;;;;;;;;;;24.97;37.75;100897.94;5037757;28;19944;-82
2021/07/22 10:48:08;;;;;;;8.35;6.65;;;;;;;24.90;37.65;100891.38;5041410;28;19925;-80
2021/07/22 10:51:01;;;;;;;8.85;6.47;;;;;;;24.99;38.92;100893.22;5039801;28;20052;-82
2021/07/22 10:53:44;;;;;;;8.80;6.50;;;;;;;25.15;38.77;100886.13;5042584;28;20061;-82
2021/07/22 10:56:15;;;;;;;8.43;6.53;;;;;;;25.19;37.35;100883.91;5018615;28;20045;-82
2021/07/22 10:58:44;;;;;;;10.82;6.97;;;;;;;25.17;36.75;100878.69;5015569;28;20042;-82
2021/07/22 11:01:11;;;;;;;9.35;7.18;;;;;;;25.24;37.18;100878.91;5021711;28;20678;-82
2021/07/22 11:03:41;;;;;;;10.98;7.18;;;;;;;25.27;37.23;100883.16;5041485;28;20041;-82
2021/07/22 11:06:13;;;;;;;9.63;7.30;;;;;;;25.26;37.67;100879.59;5022240;28;20149;-82
2021/07/22 11:08:44;;;;;;;9.77;7.00;;;;;;;25.43;36.79;100883.31;5031651;28;20074;-81
2021/07/22 11:11:15;;;;;;;8.70;6.55;;;;;;;25.57;36.50;100871.06;5017162;28;20149;-82
2021/07/22 11:13:47;;;;;;;8.30;6.85;;;;;;;25.61;36.10;100864.31;5012194;28;20050;-82
2021/07/22 11:16:28;;;;;;;11.27;7.57;;;;;;;25.72;35.73;100864.94;5021075;28;20053;-83
2021/07/22 11:19:01;;;;;;;10.15;7.05;;;;;;;25.81;35.64;100865.88;5021677;28;20050;-82
2021/07/22 11:21:48;;;;;;;10.13;7.28;;;;;;;25.93;35.30;100861.00;5009839;28;20060;-81
2021/07/22 11:24:25;;;;;;;10.15;7.82;;;;;;;26.00;37.16;100862.91;5021551;28;20093;-81
2021/07/22 11:26:57;;;;;;;8.77;7.00;;;;;;;26.08;36.33;100860.25;5015594;28;20505;-81
2021/07/22 11:29:25;;;;;;;9.98;7.65;;;;;;;26.05;34.63;100848.88;5016249;28;20555;-81
2021/07/22 11:31:55;;;;;;;9.13;7.47;;;;;;;25.98;35.65;100851.38;5020155;28;20057;-81